Time;durP1;ratioP1;P1;durP2;ratioP2;P2;SDS_P1;SDS_P2;PMS_P1;PMS_P2;Temp;Humidity;BMP_temperature;BMP_pressure;BME280_temperature;BME280_humidity;BME280_pressure;Samples;Min_cycle;Max_cycle;Signal;HPM_P1;HPM_P2
2021/03/17 00:02:14;;;;;;;45.00;25.50;;;;;;;1.88;76.86;98532.20;129105;1105;22949;-65
2021/03/17 00:05:00;;;;;;;34.33;23.07;;;;;;;1.86;76.81;98528.95;129201;1105;22955;-65
2021/03/17 00:07:46;;;;;;;46.50;24.65;;;;;;;1.84;76.66;98523.80;129104;1105;23809;-63
2021/03/17 00:10:42;;;;;;;47.65;23.40;;;;;;;1.84;76.15;98523.80;129103;1105;22801;-63
2021/03/17 00:13:29;;;;;;;34.00;21.62;;;;;;;1.83;76.13;98516.79;129096;1105;23001;-63
2021/03/17 00:16:15;;;;;;;36.85;20.05;;;;;;;1.82;76.61;98515.15;129237;1105;22921;-63
2021/03/17 00:19:01;;;;;;;34.85;19.00;;;;;;;1.82;76.30;98514.33;129152;1105;23005;-63
2021/03/17 00:21:47;;;;;;;32.30;19.83;;;;;;;1.82;76.35;98511.64;129262;1105;23003;-64
2021/03/17 00:24:34;;;;;;;37.20;19.75;;;;;;;1.80;76.70;98514.55;129139;1105;23488;-63
2021/03/17 00:27:20;;;;;;;50.30;19.30;;;;;;;1.76;77.04;98514.17;128636;1105;22828;-63
2021/03/17 00:30:07;;;;;;;29.30;16.20;;;;;;;1.73;76.66;98521.89;129098;1105;23643;-63
2021/03/17 00:32:53;;;;;;;27.70;16.35;;;;;;;1.73;77.12;98519.99;129210;1106;23775;-63
2021/03/17 00:35:42;;;;;;;24.50;15.47;;;;;;;1.73;76.36;98527.26;129249;1105;23026;-64
2021/03/17 00:38:29;;;;;;;34.13;15.93;;;;;;;1.74;76.17;98510.07;129123;1105;22825;-64
2021/03/17 00:41:15;;;;;;;28.40;16.50;;;;;;;1.75;77.23;98512.53;129204;1104;22828;-63
2021/03/17 00:44:01;;;;;;;33.40;15.65;;;;;;;1.77;76.51;98523.05;129117;1105;22875;-64
2021/03/17 00:46:47;;;;;;;36.40;16.60;;;;;;;1.77;76.19;98520.37;129267;1105;22875;-64
2021/03/17 00:49:20;;;;;;;19.40;14.63;;;;;;;1.77;76.92;98525.73;128401;1106;22868;-64
2021/03/17 00:51:47;;;;;;;23.47;14.10;;;;;;;1.77;77.40;98521.19;129220;1105;23608;-63
2021/03/17 00:54:34;;;;;;;30.30;15.90;;;;;;;1.77;77.09;98526.56;129081;1105;22921;-63
2021/03/17 00:57:14;;;;;;;23.77;13.20;;;;;;;1.80;76.26;98513.73;128775;1106;22843;-63
2021/03/17 00:59:42;;;;;;;24.20;15.57;;;;;;;1.77;75.99;98513.13;129159;1104;22952;-63
2021/03/17 01:02:09;;;;;;;24.60;12.57;;;;;;;1.78;76.67;98512.09;128896;1105;22822;-62
2021/03/17 01:04:37;;;;;;;26.55;12.50;;;;;;;1.75;76.62;98509.02;129114;1105;22820;-63
2021/03/17 01:07:08;;;;;;;21.23;12.17;;;;;;;1.74;76.09;98500.16;129220;1105;22923;-63
2021/03/17 01:09:35;;;;;;;23.37;12.57;;;;;;;1.74;76.84;98500.16;129153;1105;22824;-63
2021/03/17 01:12:04;;;;;;;21.00;11.77;;;;;;;1.73;76.97;98497.72;129269;1105;22834;-63
2021/03/17 01:14:44;;;;;;;24.45;12.95;;;;;;;1.73;77.12;98503.09;129216;1105;22816;-62
2021/03/17 01:17:12;;;;;;;22.43;11.47;;;;;;;1.70;76.65;98504.36;125536;1106;26402;-62
2021/03/17 01:19:41;;;;;;;26.15;11.50;;;;;;;1.69;76.59;98508.08;124821;1106;28983;-62
2021/03/17 01:22:10;;;;;;;28.70;11.30;;;;;;;1.68;76.46;98506.44;124732;1105;23269;-62
2021/03/17 01:24:37;;;;;;;21.55;11.15;;;;;;;1.65;76.22;98506.89;124800;1105;23031;-62
2021/03/17 01:27:05;;;;;;;19.00;10.47;;;;;;;1.63;76.84;98500.92;129131;1105;24442;-63
2021/03/17 01:29:34;;;;;;;25.25;12.15;;;;;;;1.63;77.15;98500.09;129258;1105;23149;-63
2021/03/17 01:32:01;;;;;;;32.17;12.17;;;;;;;1.61;77.41;98503.00;129124;1105;23105;-63
2021/03/17 01:34:30;;;;;;;17.25;12.10;;;;;;;1.62;76.40;98503.83;129265;1105;22882;-63
2021/03/17 01:36:57;;;;;;;26.40;12.10;;;;;;;1.62;77.41;98498.45;129109;1105;22907;-63
2021/03/17 01:39:24;;;;;;;25.85;11.70;;;;;;;1.61;76.75;98508.38;129255;1105;23841;-63
2021/03/17 01:41:52;;;;;;;22.70;11.07;;;;;;;1.60;77.38;98498.67;129165;1105;23081;-63
2021/03/17 01:44:19;;;;;;;24.75;11.10;;;;;;;1.58;77.08;98495.42;129248;1105;22848;-63
2021/03/17 01:46:55;;;;;;;23.05;11.35;;;;;;;1.56;77.21;98505.56;128733;1106;22890;-63
2021/03/17 01:49:23;;;;;;;22.60;11.00;;;;;;;1.55;77.09;98495.88;129271;1104;22884;-63
2021/03/17 01:51:51;;;;;;;21.30;11.70;;;;;;;1.54;76.61;98491.55;129141;1105;23006;-63
2021/03/17 01:54:18;;;;;;;23.20;11.30;;;;;;;1.54;77.01;98499.59;129225;1105;23463;-63
2021/03/17 01:56:46;;;;;;;22.05;11.45;;;;;;;1.55;77.03;98492.36;128365;1105;26507;-63
2021/03/17 01:59:14;;;;;;;24.40;13.17;;;;;;;1.56;76.09;98494.01;129243;1105;23383;-63
2021/03/17 02:01:42;;;;;;;15.70;10.10;;;;;;;1.57;76.65;98501.84;129113;1105;23643;-61
2021/03/17 02:04:10;;;;;;;25.20;11.90;;;;;;;1.56;76.00;98486.77;129261;1106;22798;-61
2021/03/17 02:06:38;;;;;;;24.30;11.43;;;;;;;1.57;76.78;98491.10;128387;1106;22962;-61
2021/03/17 02:09:05;;;;;;;23.80;11.60;;;;;;;1.55;77.00;98489.68;129125;1105;23380;-61
2021/03/17 02:12:44;;;;;;;24.50;11.45;;;;;;;1.55;76.46;98489.68;124266;1112;27371;-63
2021/03/17 02:16:00;;;;;;;23.00;12.35;;;;;;;1.57;76.51;98496.47;124174;1112;23562;-62
2021/03/17 02:18:56;;;;;;;23.43;13.77;;;;;;;1.55;77.06;98495.88;128195;1112;22982;-63
2021/03/17 02:21:45;;;;;;;24.37;13.43;;;;;;;1.53;76.37;98495.27;128313;1111;22998;-63
2021/03/17 02:24:48;;;;;;;27.67;15.63;;;;;;;1.54;76.53;98494.23;128221;1111;22970;-63
2021/03/17 02:27:24;;;;;;;27.00;13.90;;;;;;;1.52;76.65;98492.81;128331;1111;22833;-63
2021/03/17 02:30:13;;;;;;;32.07;13.20;;;;;;;1.49;76.57;98490.56;128190;1111;22983;-63
2021/03/17 02:33:18;;;;;;;40.13;14.27;;;;;;;1.50;76.60;98492.21;128300;1111;22897;-63
2021/03/17 02:35:47;;;;;;;26.35;12.25;;;;;;;1.50;76.85;98487.66;128353;1112;24097;-63
2021/03/17 02:38:15;;;;;;;32.80;13.23;;;;;;;1.53;75.78;98495.27;128152;1111;22851;-63
2021/03/17 02:40:42;;;;;;;29.10;15.00;;;;;;;1.55;76.43;98489.68;128233;1112;22973;-63
2021/03/17 02:43:27;;;;;;;24.90;13.20;;;;;;;1.55;76.28;98495.05;127856;1114;22941;-63
2021/03/17 02:45:58;;;;;;;27.90;12.60;;;;;;;1.53;76.19;98489.08;127951;1114;24148;-63
2021/03/17 02:48:31;;;;;;;23.57;11.67;;;;;;;1.52;75.64;98487.44;127883;1114;23010;-63
2021/03/17 02:51:04;;;;;;;25.63;12.20;;;;;;;1.53;76.08;98489.08;127945;1113;23287;-63
2021/03/17 02:53:32;;;;;;;20.50;12.10;;;;;;;1.51;76.25;98486.62;127992;1113;22959;-63
2021/03/17 02:56:06;;;;;;;22.13;11.27;;;;;;;1.50;75.33;98478.79;127918;1113;22840;-63
2021/03/17 02:58:34;;;;;;;28.83;13.77;;;;;;;1.49;74.97;98488.70;127905;1113;22859;-63
2021/03/17 03:01:02;;;;;;;23.33;12.30;;;;;;;1.49;75.63;98477.97;127852;1113;23143;-63
2021/03/17 03:03:30;;;;;;;29.37;11.60;;;;;;;1.49;75.87;98490.56;127986;1113;22910;-63
2021/03/17 03:05:58;;;;;;;24.57;11.77;;;;;;;1.49;75.84;98480.66;127779;1114;23199;-63
2021/03/17 03:08:27;;;;;;;24.10;11.15;;;;;;;1.49;76.12;98475.28;127939;1113;22889;-63
2021/03/17 03:11:04;;;;;;;29.60;12.70;;;;;;;1.50;75.33;98479.61;127922;1112;22880;-63
2021/03/17 03:13:32;;;;;;;26.75;11.70;;;;;;;1.52;75.67;98482.07;128299;1111;22998;-63
2021/03/17 03:16:14;;;;;;;25.40;10.03;;;;;;;1.52;75.51;98480.20;128171;1111;23002;-63
2021/03/17 03:18:46;;;;;;;28.30;11.00;;;;;;;1.54;75.12;98486.17;128019;1111;22890;-63
2021/03/17 03:21:16;;;;;;;18.15;10.70;;;;;;;1.55;74.82;98487.00;127907;1112;22994;-63
2021/03/17 03:23:45;;;;;;;23.50;10.70;;;;;;;1.55;75.71;98484.31;128325;1112;22833;-63
2021/03/17 03:26:15;;;;;;;19.30;11.25;;;;;;;1.55;75.44;98487.00;127933;1111;22965;-62
2021/03/17 03:28:43;;;;;;;25.50;11.20;;;;;;;1.55;75.41;98487.00;128292;1111;22831;-62
2021/03/17 03:31:11;;;;;;;16.40;10.35;;;;;;;1.55;74.97;98476.27;127929;1112;22984;-62
2021/03/17 03:33:38;;;;;;;21.90;11.47;;;;;;;1.53;74.30;98475.66;128281;1111;22947;-62
2021/03/17 03:36:17;;;;;;;25.55;11.60;;;;;;;1.55;74.93;98484.31;128146;1112;22919;-62
2021/03/17 03:38:45;;;;;;;16.35;10.50;;;;;;;1.54;75.46;98483.48;128254;1112;22835;-62
2021/03/17 03:41:12;;;;;;;30.43;10.70;;;;;;;1.56;75.12;98480.59;128143;1111;22906;-63
2021/03/17 03:43:39;;;;;;;16.75;10.95;;;;;;;1.55;75.38;98479.77;128330;1110;22817;-63
2021/03/17 03:46:07;;;;;;;32.60;14.05;;;;;;;1.58;75.63;98495.42;128162;1111;22845;-63
2021/03/17 03:48:38;;;;;;;22.75;11.70;;;;;;;1.58;75.64;98484.69;128279;1111;22799;-62
2021/03/17 03:51:05;;;;;;;22.10;12.03;;;;;;;1.59;75.07;98486.30;128109;1111;28579;-62
2021/03/17 03:53:47;;;;;;;26.40;14.15;;;;;;;1.59;75.53;98483.61;128283;1112;22898;-62
2021/03/17 03:56:25;;;;;;;23.03;10.83;;;;;;;1.58;75.56;98481.19;128118;1112;22814;-62
2021/03/17 03:59:11;;;;;;;21.55;11.90;;;;;;;1.58;74.88;98489.23;128297;1111;22850;-62
2021/03/17 04:01:59;;;;;;;29.37;11.40;;;;;;;1.56;75.01;98481.41;128131;1111;23755;-62
2021/03/17 04:04:28;;;;;;;23.40;11.13;;;;;;;1.58;75.09;98478.50;128045;1112;22855;-62
2021/03/17 04:06:56;;;;;;;22.73;11.53;;;;;;;1.57;75.60;98469.63;128121;1112;22841;-62
2021/03/17 04:09:33;;;;;;;18.87;12.20;;;;;;;1.57;75.88;98472.31;128049;1111;22900;-62
2021/03/17 04:12:01;;;;;;;19.63;11.97;;;;;;;1.56;74.90;98476.03;128136;1111;24275;-62
2021/03/17 04:14:29;;;;;;;18.60;12.07;;;;;;;1.56;74.82;98472.53;128264;1112;22857;-62
2021/03/17 04:17:00;;;;;;;20.25;12.90;;;;;;;1.55;75.25;98471.71;127880;1112;22920;-62
2021/03/17 04:19:28;;;;;;;23.35;12.05;;;;;;;1.55;75.56;98466.34;128366;1111;22882;-62
2021/03/17 04:21:56;;;;;;;26.55;12.40;;;;;;;1.56;74.51;98470.67;128229;1112;23466;-62
2021/03/17 04:24:24;;;;;;;20.40;12.17;;;;;;;1.56;75.42;98459.93;128048;1112;24140;-62
2021/03/17 04:26:51;;;;;;;28.13;12.93;;;;;;;1.56;75.14;98470.67;128222;1112;23597;-62
2021/03/17 04:29:18;;;;;;;27.15;12.90;;;;;;;1.57;75.34;98469.63;127914;1111;22891;-62
2021/03/17 04:31:47;;;;;;;26.97;13.63;;;;;;;1.58;75.09;98467.77;128027;1111;22842;-62
2021/03/17 04:34:15;;;;;;;18.80;10.93;;;;;;;1.58;75.11;98463.22;127924;1112;22905;-62
2021/03/17 04:36:42;;;;;;;28.10;11.95;;;;;;;1.61;74.62;98457.37;128243;1111;23020;-62
2021/03/17 04:39:10;;;;;;;19.90;12.33;;;;;;;1.62;75.54;98461.69;127905;1112;22814;-64
2021/03/17 04:41:37;;;;;;;19.67;10.67;;;;;;;1.62;74.96;98461.69;128290;1107;22836;-63
2021/03/17 04:44:05;;;;;;;17.90;12.35;;;;;;;1.62;75.58;98450.95;128206;1109;22998;-63
2021/03/17 04:46:32;;;;;;;19.65;11.85;;;;;;;1.64;75.32;98451.55;128323;1108;22923;-63
2021/03/17 04:49:00;;;;;;;22.47;12.27;;;;;;;1.67;74.15;98452.97;128117;1109;23840;-62
2021/03/17 04:51:27;;;;;;;26.73;11.30;;;;;;;1.66;74.68;98457.52;128325;1109;23575;-62
2021/03/17 04:53:55;;;;;;;25.93;11.93;;;;;;;1.66;74.57;98457.52;128219;1109;23699;-63
2021/03/17 04:56:22;;;;;;;22.95;11.70;;;;;;;1.67;75.22;98456.47;128359;1111;23693;-63
2021/03/17 04:58:50;;;;;;;23.63;11.40;;;;;;;1.68;75.26;98452.74;128234;1109;22921;-63
2021/03/17 05:01:18;;;;;;;21.60;11.37;;;;;;;1.70;75.42;98449.84;128287;1109;23032;-63
2021/03/17 05:03:46;;;;;;;20.90;11.70;;;;;;;1.73;75.06;98460.13;128254;1108;23598;-63
2021/03/17 05:06:13;;;;;;;18.43;11.53;;;;;;;1.74;74.43;98453.69;128381;1109;22903;-63
2021/03/17 05:08:42;;;;;;;27.47;12.23;;;;;;;1.73;75.00;98455.55;128319;1109;22895;-63
2021/03/17 05:11:10;;;;;;;18.27;11.17;;;;;;;1.73;75.13;98447.49;128213;1108;23020;-63
2021/03/17 05:13:38;;;;;;;19.55;11.05;;;;;;;1.74;74.97;98448.31;128351;1109;23006;-63
2021/03/17 05:16:06;;;;;;;25.37;12.97;;;;;;;1.76;73.97;98448.91;128187;1109;22868;-63
2021/03/17 05:18:33;;;;;;;26.35;13.10;;;;;;;1.76;75.01;98448.91;128353;1109;22885;-63
2021/03/17 05:21:01;;;;;;;22.65;13.15;;;;;;;1.80;74.68;98449.28;128168;1109;22859;-62
2021/03/17 05:23:28;;;;;;;22.47;11.93;;;;;;;1.80;74.71;98449.28;128298;1109;22958;-62
2021/03/17 05:25:57;;;;;;;19.67;11.93;;;;;;;1.81;74.38;98456.30;128243;1108;22840;-62
2021/03/17 05:28:26;;;;;;;23.85;11.20;;;;;;;1.81;74.63;98450.92;128316;1109;22988;-62
2021/03/17 05:30:53;;;;;;;22.65;11.35;;;;;;;1.83;73.85;98454.20;128222;1109;22812;-62
2021/03/17 05:33:25;;;;;;;24.83;12.67;;;;;;;1.82;74.69;98456.06;128325;1109;22854;-62
2021/03/17 05:35:54;;;;;;;20.63;11.13;;;;;;;1.83;73.93;98459.58;128174;1108;22837;-62
2021/03/17 05:38:21;;;;;;;21.15;12.65;;;;;;;1.84;74.31;98463.90;128376;1108;22878;-62
2021/03/17 05:40:49;;;;;;;24.90;12.07;;;;;;;1.83;74.01;98454.20;128165;1108;23437;-62
2021/03/17 05:43:17;;;;;;;23.27;11.63;;;;;;;1.86;75.00;98459.13;128311;1109;22884;-62
2021/03/17 05:45:46;;;;;;;20.83;10.50;;;;;;;1.86;74.86;98459.95;128175;1108;23600;-63
2021/03/17 05:48:16;;;;;;;24.63;11.50;;;;;;;1.89;73.62;98467.52;128294;1109;22845;-61
2021/03/17 05:50:43;;;;;;;20.20;10.37;;;;;;;1.91;74.31;98462.75;128221;1108;23230;-61
2021/03/17 05:53:12;;;;;;;26.15;10.05;;;;;;;1.93;74.69;98463.34;128306;1108;23008;-61
2021/03/17 05:55:40;;;;;;;18.30;10.30;;;;;;;1.93;74.36;98459.84;128202;1109;22976;-59
2021/03/17 05:58:07;;;;;;;22.67;12.40;;;;;;;1.94;73.87;98466.84;128354;1108;23347;-60
2021/03/17 06:00:35;;;;;;;21.10;11.63;;;;;;;1.95;74.24;98460.43;128355;1108;22878;-61
2021/03/17 06:03:03;;;;;;;20.85;10.15;;;;;;;1.95;73.86;98466.63;128286;1109;22826;-60
2021/03/17 06:05:31;;;;;;;26.95;11.25;;;;;;;1.97;74.03;98471.77;128310;1109;22817;-61
2021/03/17 06:08:06;;;;;;;19.20;9.80;;;;;;;1.98;74.07;98473.41;128230;1108;22991;-61
2021/03/17 06:10:34;;;;;;;26.60;11.43;;;;;;;2.00;73.32;98471.31;128386;1108;22867;-61
2021/03/17 06:13:09;;;;;;;20.35;10.00;;;;;;;2.00;73.53;98468.63;128221;1109;22969;-61
2021/03/17 06:15:39;;;;;;;20.82;11.57;;;;;;;2.03;73.72;98474.34;128322;1109;22932;-61
2021/03/17 06:18:30;;;;;;;20.10;10.50;;;;;;;2.04;73.76;98472.48;128251;1108;22992;-61
2021/03/17 06:20:58;;;;;;;23.40;11.03;;;;;;;2.06;73.96;98470.39;128359;1109;23560;-62
2021/03/17 06:23:25;;;;;;;23.63;11.47;;;;;;;2.07;73.72;98464.78;128164;1108;22820;-62
2021/03/17 06:25:53;;;;;;;20.90;11.50;;;;;;;2.12;73.43;98461.42;128286;1107;23866;-62
2021/03/17 06:28:21;;;;;;;17.83;9.80;;;;;;;2.12;73.15;98458.73;128203;1108;22864;-62
2021/03/17 06:30:49;;;;;;;23.10;11.55;;;;;;;2.12;72.99;98464.93;128343;1108;23575;-62
2021/03/17 06:33:16;;;;;;;16.23;9.87;;;;;;;2.15;73.37;98458.28;128242;1107;22821;-62
2021/03/17 06:35:43;;;;;;;19.73;9.47;;;;;;;2.17;73.30;98455.34;128337;1108;22861;-63
2021/03/17 06:38:22;;;;;;;20.27;9.37;;;;;;;2.17;72.53;98466.91;128272;1109;23503;-64
2021/03/17 06:40:57;;;;;;;21.95;9.70;;;;;;;2.18;73.45;98456.98;128308;1108;22816;-63
2021/03/17 06:43:43;;;;;;;16.87;10.27;;;;;;;2.20;72.55;98465.63;128160;1109;22818;-64
2021/03/17 06:46:16;;;;;;;20.40;10.55;;;;;;;2.22;72.14;98460.85;128337;1108;22816;-63
2021/03/17 06:48:57;;;;;;;24.65;9.45;;;;;;;2.24;72.46;98456.89;128207;1108;23863;-64
2021/03/17 06:51:24;;;;;;;20.80;10.35;;;;;;;2.26;72.41;98459.35;128356;1108;23790;-63
2021/03/17 06:53:53;;;;;;;17.50;9.63;;;;;;;2.28;71.96;98458.08;128244;1108;22852;-64
2021/03/17 06:56:21;;;;;;;19.30;10.30;;;;;;;2.32;71.94;98463.78;128330;1108;22832;-64
2021/03/17 06:59:00;;;;;;;19.10;10.65;;;;;;;2.27;71.76;98453.75;128226;1109;23597;-64
2021/03/17 07:01:42;;;;;;;23.80;10.25;;;;;;;2.34;72.15;98456.31;128339;1108;22897;-63
2021/03/17 07:04:17;;;;;;;22.10;10.73;;;;;;;2.35;71.93;98471.39;128193;1107;23914;-63
2021/03/17 07:06:45;;;;;;;18.45;11.20;;;;;;;2.38;72.07;98465.56;125899;1109;27342;-63
2021/03/17 07:09:20;;;;;;;20.43;10.80;;;;;;;2.42;72.15;98472.12;128245;1108;22843;-63
2021/03/17 07:12:04;;;;;;;19.73;9.30;;;;;;;2.45;71.44;98458.23;128301;1112;22972;-63
2021/03/17 07:14:42;;;;;;;22.03;11.00;;;;;;;2.48;71.59;98468.49;128203;1112;22838;-63
2021/03/17 07:17:32;;;;;;;22.20;11.30;;;;;;;2.52;71.79;98469.67;128318;1110;22996;-63
2021/03/17 07:20:04;;;;;;;21.23;10.60;;;;;;;2.55;71.40;98461.16;128127;1111;23610;-63
2021/03/17 07:22:33;;;;;;;21.90;12.97;;;;;;;2.56;71.25;98462.79;128324;1109;23090;-63
2021/03/17 07:25:02;;;;;;;23.27;12.33;;;;;;;2.56;71.35;98456.59;128184;1108;22842;-63
2021/03/17 07:27:31;;;;;;;30.00;14.65;;;;;;;2.57;70.85;98464.44;128349;1108;22848;-63
2021/03/17 07:30:02;;;;;;;26.40;12.50;;;;;;;2.58;70.83;98455.31;128209;1110;24125;-63
2021/03/17 07:32:58;;;;;;;23.33;12.90;;;;;;;2.58;70.48;98462.56;128376;1108;23031;-62
2021/03/17 07:35:35;;;;;;;22.63;11.57;;;;;;;2.59;70.28;98461.52;128249;1109;22892;-62
2021/03/17 07:38:07;;;;;;;;;;;;;;;2.59;71.32;98456.14;128298;1108;24135;-63
2021/03/17 07:40:35;;;;;;;20.63;11.27;;;;;;;2.60;71.18;98465.84;128176;1110;21431;-62
2021/03/17 07:43:04;;;;;;;24.40;12.00;;;;;;;2.61;71.03;98460.20;128359;1109;23574;-63
2021/03/17 07:45:32;;;;;;;24.73;12.83;;;;;;;2.62;70.66;98458.34;128119;1110;22873;-63
2021/03/17 07:48:06;;;;;;;22.57;12.40;;;;;;;2.64;71.19;98457.06;128375;1109;23720;-62
2021/03/17 07:50:36;;;;;;;19.90;10.45;;;;;;;2.68;70.96;98470.86;128165;1109;22932;-62
2021/03/17 07:53:16;;;;;;;29.87;12.37;;;;;;;2.69;70.92;98454.50;128336;1108;23595;-62
2021/03/17 07:55:45;;;;;;;23.50;11.90;;;;;;;2.71;70.52;98471.23;128099;1112;23611;-62
2021/03/17 07:58:13;;;;;;;22.07;12.13;;;;;;;2.73;70.55;98462.92;128261;1109;23419;-62
2021/03/17 08:00:42;;;;;;;22.23;13.47;;;;;;;2.73;70.72;98463.75;128183;1109;22864;-64
2021/03/17 08:03:12;;;;;;;26.65;14.30;;;;;;;2.75;70.24;98466.99;128368;1108;22946;-63
2021/03/17 08:05:40;;;;;;;31.13;14.00;;;;;;;2.77;70.64;98464.08;128272;1109;22888;-63
2021/03/17 08:08:07;;;;;;;33.45;16.45;;;;;;;2.78;70.53;98455.78;128284;1108;23303;-63
2021/03/17 08:10:44;;;;;;;28.90;13.87;;;;;;;2.81;70.60;98458.00;128283;1108;22867;-63
2021/03/17 08:13:12;;;;;;;26.30;13.20;;;;;;;2.83;70.92;98461.28;128205;1109;22868;-63
2021/03/17 08:15:50;;;;;;;25.40;11.47;;;;;;;2.86;70.49;98459.19;128358;1109;22956;-63
2021/03/17 08:18:31;;;;;;;26.00;12.60;;;;;;;2.86;70.86;98454.63;128149;1110;22842;-63
2021/03/17 08:21:00;;;;;;;20.50;11.05;;;;;;;2.87;70.78;98456.26;128298;1108;22899;-63
2021/03/17 08:23:53;;;;;;;25.25;11.90;;;;;;;2.89;70.90;98451.44;128239;1108;22911;-63
2021/03/17 08:26:20;;;;;;;22.05;11.85;;;;;;;2.92;70.91;98448.28;128365;1109;22907;-63
2021/03/17 08:28:54;;;;;;;29.90;11.83;;;;;;;2.94;71.32;98453.44;128202;1108;22871;-63
2021/03/17 08:31:37;;;;;;;20.73;12.73;;;;;;;2.97;70.94;98452.97;128384;1108;22860;-63
2021/03/17 08:34:17;;;;;;;24.90;12.93;;;;;;;2.96;71.09;98456.71;128281;1109;23591;-63
2021/03/17 08:36:46;;;;;;;26.97;12.93;;;;;;;2.94;70.94;98456.13;128335;1109;22880;-63
2021/03/17 08:39:29;;;;;;;28.15;13.00;;;;;;;2.93;71.06;98441.85;128281;1108;24269;-63
2021/03/17 08:41:57;;;;;;;27.20;12.73;;;;;;;2.94;71.48;98446.18;128345;1108;22932;-65
2021/03/17 08:44:39;;;;;;;21.45;12.50;;;;;;;2.97;70.74;98452.97;128274;1108;23734;-63
2021/03/17 08:47:29;;;;;;;19.37;12.37;;;;;;;2.98;71.19;98441.98;128351;1109;22849;-64
2021/03/17 08:50:19;;;;;;;21.77;11.60;;;;;;;3.02;70.83;98448.53;128335;1108;22988;-63
2021/03/17 08:52:48;;;;;;;17.97;11.43;;;;;;;3.05;70.98;98445.34;128227;1109;23080;-64
2021/03/17 08:55:20;;;;;;;21.37;11.87;;;;;;;3.09;70.40;98459.97;128338;1108;22962;-64
2021/03/17 08:58:03;;;;;;;23.60;12.45;;;;;;;3.11;70.63;98457.05;128212;1109;22837;-63
2021/03/17 09:00:49;;;;;;;21.80;12.82;;;;;;;3.12;70.56;98453.30;128269;1108;22850;-64
2021/03/17 09:03:29;;;;;;;29.47;14.57;;;;;;;3.13;70.46;98453.08;128200;1108;22857;-64
2021/03/17 09:06:18;;;;;;;24.90;13.07;;;;;;;3.13;70.55;98452.25;128316;1109;22844;-64
2021/03/17 09:09:15;;;;;;;21.87;11.97;;;;;;;3.17;70.55;98456.91;128221;1109;23891;-64
2021/03/17 09:11:42;;;;;;;20.30;10.50;;;;;;;3.19;70.20;98453.98;128336;1108;22881;-65
2021/03/17 09:14:21;;;;;;;21.65;11.70;;;;;;;3.20;70.18;98450.23;128225;1109;22864;-63
2021/03/17 09:17:11;;;;;;;20.65;11.30;;;;;;;3.22;70.51;98453.52;128305;1109;22849;-63
2021/03/17 09:19:55;;;;;;;21.45;11.25;;;;;;;3.30;70.88;98455.04;128179;1109;22876;-63
2021/03/17 09:22:57;;;;;;;28.50;12.20;;;;;;;3.33;70.36;98451.84;128341;1109;23149;-63
2021/03/17 09:25:43;;;;;;;20.60;11.05;;;;;;;3.39;70.11;98458.98;128200;1108;22859;-63
2021/03/17 09:28:32;;;;;;;23.25;11.80;;;;;;;3.42;69.66;98458.52;128379;1108;22880;-63
2021/03/17 09:31:04;;;;;;;26.25;12.90;;;;;;;3.46;69.78;98470.45;128299;1107;22833;-62
2021/03/17 09:33:32;;;;;;;22.67;11.37;;;;;;;3.48;69.91;98461.06;128388;1109;23544;-63
2021/03/17 09:36:25;;;;;;;20.55;10.25;;;;;;;3.51;68.95;98465.98;128171;1109;23051;-62
2021/03/17 09:38:53;;;;;;;23.25;9.60;;;;;;;3.50;68.80;98467.03;128369;1108;23578;-63
2021/03/17 09:41:28;;;;;;;22.37;10.37;;;;;;;3.54;69.42;98467.38;128187;1108;22935;-63
2021/03/17 09:44:05;;;;;;;28.40;10.50;;;;;;;3.57;69.10;98461.52;128336;1108;22895;-62
2021/03/17 09:46:42;;;;;;;20.30;10.60;;;;;;;3.58;68.53;98471.24;126013;1109;23032;-62
2021/03/17 09:49:15;;;;;;;21.15;11.10;;;;;;;3.60;68.61;98476.39;124444;1109;23067;-62
2021/03/17 09:51:49;;;;;;;19.50;11.40;;;;;;;3.57;68.58;98468.78;128232;1108;23400;-62
2021/03/17 09:54:19;;;;;;;21.35;12.70;;;;;;;3.55;69.15;98472.53;128339;1107;22870;-63
2021/03/17 09:56:48;;;;;;;18.77;10.17;;;;;;;3.57;68.61;98474.99;128225;1108;24686;-63
2021/03/17 09:59:25;;;;;;;23.05;10.30;;;;;;;3.59;68.46;98472.06;128320;1108;23802;-63
2021/03/17 10:01:59;;;;;;;23.60;10.90;;;;;;;3.59;69.02;98462.11;128231;1109;22835;-63
2021/03/17 10:04:30;;;;;;;24.30;11.65;;;;;;;3.60;69.11;98471.83;128347;1108;22916;-63
2021/03/17 10:06:57;;;;;;;18.45;9.90;;;;;;;3.65;68.61;98466.52;128280;1108;23044;-63
2021/03/17 10:09:29;;;;;;;17.60;8.95;;;;;;;3.67;68.46;98463.59;128308;1108;23608;-63
2021/03/17 10:12:12;;;;;;;25.20;10.35;;;;;;;3.70;68.99;98465.81;128210;1108;24058;-63
2021/03/17 10:14:43;;;;;;;16.10;8.95;;;;;;;3.70;68.57;98461.25;128346;1109;22849;-63
2021/03/17 10:17:11;;;;;;;20.20;9.87;;;;;;;3.73;68.71;98459.95;128213;1108;23004;-63
2021/03/17 10:19:40;;;;;;;19.03;11.43;;;;;;;3.75;68.82;98458.62;128367;1107;23462;-63
2021/03/17 10:22:07;;;;;;;24.87;9.73;;;;;;;3.77;68.79;98453.01;128257;1109;22976;-62
2021/03/17 10:24:48;;;;;;;21.70;11.05;;;;;;;3.81;68.21;98452.30;128292;1109;22805;-62
2021/03/17 10:27:20;;;;;;;22.95;11.45;;;;;;;3.86;68.99;98454.28;128206;1108;22889;-63
2021/03/17 10:29:50;;;;;;;25.85;8.85;;;;;;;3.88;68.25;98463.77;128313;1107;22985;-63
2021/03/17 10:32:22;;;;;;;21.17;9.20;;;;;;;3.86;68.48;98454.28;128130;1109;24037;-63
2021/03/17 10:34:51;;;;;;;22.00;11.80;;;;;;;3.85;68.94;98458.84;128334;1108;22992;-63
2021/03/17 10:37:20;;;;;;;23.40;10.30;;;;;;;3.86;68.26;98457.79;128185;1109;24037;-63
2021/03/17 10:39:48;;;;;;;23.55;10.60;;;;;;;3.86;67.72;98455.09;128309;1108;22856;-63
2021/03/17 10:42:24;;;;;;;26.35;10.05;;;;;;;3.88;68.07;98457.55;128255;1108;22996;-64
2021/03/17 10:45:09;;;;;;;21.70;8.88;;;;;;;3.86;67.81;98455.09;128345;1109;23030;-63
2021/03/17 10:47:37;;;;;;;20.40;8.75;;;;;;;3.88;68.07;98455.67;128229;1109;23001;-63
2021/03/17 10:50:07;;;;;;;17.03;8.70;;;;;;;3.93;67.87;98459.50;128369;1108;24197;-63
2021/03/17 10:52:38;;;;;;;18.57;9.07;;;;;;;3.93;67.65;98460.33;128298;1109;22927;-63
2021/03/17 10:55:14;;;;;;;18.35;9.05;;;;;;;3.93;68.11;98448.72;128351;1108;22864;-53
2021/03/17 10:57:42;;;;;;;17.60;9.30;;;;;;;3.93;68.16;98456.81;128231;1109;22920;-63
2021/03/17 11:00:15;;;;;;;17.25;8.50;;;;;;;3.93;67.72;98454.11;128341;1108;22853;-63
2021/03/17 11:02:43;;;;;;;23.65;9.40;;;;;;;3.93;68.12;98460.33;128244;1108;22969;-63
2021/03/17 11:05:15;;;;;;;20.70;8.50;;;;;;;3.92;68.44;98455.98;128367;1107;22859;-63
2021/03/17 11:07:49;;;;;;;15.75;8.25;;;;;;;3.93;68.38;98456.81;128322;1108;22916;-63
2021/03/17 11:10:34;;;;;;;15.60;8.00;;;;;;;3.95;68.11;98457.39;128407;1108;23033;-63
2021/03/17 11:13:08;;;;;;;20.65;8.70;;;;;;;3.97;68.03;98452.58;128238;1108;23025;-63
2021/03/17 11:15:47;;;;;;;18.10;7.80;;;;;;;4.01;68.29;98451.05;128358;1108;22849;-63
2021/03/17 11:18:43;;;;;;;22.05;8.50;;;;;;;4.04;67.69;98451.36;128212;1108;23353;-63
2021/03/17 11:21:18;;;;;;;15.90;7.40;;;;;;;4.06;67.03;98459.20;128312;1108;22913;-63
2021/03/17 11:23:46;;;;;;;12.23;7.23;;;;;;;4.03;66.13;98457.84;128178;1110;22933;-63
2021/03/17 11:26:19;;;;;;;16.65;8.10;;;;;;;4.02;66.35;98460.77;128389;1108;22967;-63
2021/03/17 11:28:47;;;;;;;15.00;6.10;;;;;;;4.03;65.73;98452.45;128323;1108;22901;-63
2021/03/17 11:31:25;;;;;;;12.75;7.25;;;;;;;4.04;65.70;98450.57;128338;1109;22836;-64
2021/03/17 11:33:53;;;;;;;15.10;7.70;;;;;;;4.03;66.49;98447.05;128210;1108;22852;-64
2021/03/17 11:36:21;;;;;;;21.45;8.10;;;;;;;4.04;65.54;98451.36;128358;1108;22814;-63
2021/03/17 11:38:49;;;;;;;17.30;8.07;;;;;;;4.06;65.74;98449.24;128370;1108;22833;-64
2021/03/17 11:41:17;;;;;;;15.35;7.50;;;;;;;4.07;65.66;98448.19;128260;1108;22891;-64
2021/03/17 11:43:44;;;;;;;13.73;6.77;;;;;;;4.08;66.26;98465.17;128310;1108;22960;-63
2021/03/17 11:46:13;;;;;;;16.60;6.57;;;;;;;4.07;65.84;98448.19;128280;1108;24728;-63
2021/03/17 11:48:44;;;;;;;15.30;6.55;;;;;;;4.08;65.73;98449.00;128357;1108;23497;-63
2021/03/17 11:51:13;;;;;;;17.87;6.97;;;;;;;4.04;65.92;98439.79;128217;1108;22832;-62